createdAt,value
2018-05-09T00:00:12.406Z,40
2018-05-09T00:01:02.661Z,40
2018-05-09T00:01:52.458Z,40
2018-05-09T00:02:43.338Z,40
2018-05-09T00:03:33.171Z,40
2018-05-09T00:04:23.197Z,40
2018-05-09T00:05:13.519Z,40
2018-05-09T00:06:03.596Z,40
2018-05-09T00:06:53.630Z,40
2018-05-09T00:07:43.418Z,39.9
2018-05-09T00:08:33.776Z,39.9
2018-05-09T00:09:23.003Z,39.9
2018-05-09T00:10:14.010Z,39.9
2018-05-09T00:11:03.710Z,39.9
2018-05-09T00:11:54.268Z,39.9
2018-05-09T00:12:43.233Z,39.9
2018-05-09T00:13:34.160Z,39.9
2018-05-09T00:14:24.231Z,39.9
2018-05-09T00:15:13.782Z,39.9
2018-05-09T00:16:04.073Z,39.9
2018-05-09T00:16:54.144Z,39.8
2018-05-09T00:17:44.474Z,39.9
2018-05-09T00:18:34.271Z,39.8
2018-05-09T00:19:23.784Z,39.8
2018-05-09T00:20:14.406Z,39.8
2018-05-09T00:21:04.735Z,39.8
2018-05-09T00:21:54.524Z,39.8
2018-05-09T00:22:44.889Z,39.8
2018-05-09T00:23:34.974Z,39.8
2018-05-09T00:24:24.462Z,39.8
2018-05-09T00:25:14.870Z,39.8
2018-05-09T00:26:04.025Z,39.8
2018-05-09T00:26:54.948Z,39.7
2018-05-09T00:27:44.418Z,39.6
2018-05-09T00:28:35.064Z,39.6
2018-05-09T00:29:24.592Z,39.6
2018-05-09T00:30:15.188Z,39.6
2018-05-09T00:31:05.237Z,39.6
2018-05-09T00:31:55.039Z,39.6
2018-05-09T00:32:45.143Z,39.6
2018-05-09T00:33:35.440Z,39.5
2018-05-09T00:34:25.742Z,39.6
2018-05-09T00:35:15.843Z,39.5
2018-05-09T00:36:05.361Z,39.5
2018-05-09T00:36:55.676Z,39.5
2018-05-09T00:37:45.468Z,39.5
2018-05-09T00:38:35.303Z,39.4
2018-05-09T00:39:25.892Z,39.4
2018-05-09T00:40:16.214Z,39.5
2018-05-09T00:41:06.031Z,39.4
2018-05-09T00:41:56.093Z,39.4
2018-05-09T00:42:46.140Z,39.4
2018-05-09T00:43:36.211Z,39.4
2018-05-09T00:44:26.592Z,39.4
2018-05-09T00:45:15.774Z,39.4
2018-05-09T00:46:06.477Z,39.4
2018-05-09T00:46:56.458Z,39.4
2018-05-09T00:47:46.817Z,39.4
2018-05-09T00:48:36.877Z,39.4
2018-05-09T00:49:26.969Z,39.3
2018-05-09T00:50:17.390Z,39.3
2018-05-09T00:51:06.507Z,39.3
2018-05-09T00:51:56.586Z,39.3
2018-05-09T00:52:47.308Z,39.3
2018-05-09T00:53:37.244Z,39.3
2018-05-09T00:54:27.051Z,39.3
2018-05-09T00:55:17.120Z,39.3
2018-05-09T00:56:07.175Z,39.3
2018-05-09T00:56:57.617Z,39.3
2018-05-09T00:57:47.366Z,39.3
2018-05-09T00:58:37.104Z,39.3
2018-05-09T00:59:27.149Z,39.2
2018-05-09T01:00:17.788Z,39.3
2018-05-09T01:01:07.528Z,39.3
2018-05-09T01:01:57.917Z,39.2
2018-05-09T01:02:47.694Z,39.2
2018-05-09T01:03:37.872Z,39.2
2018-05-09T01:04:27.791Z,39.1
2018-05-09T01:05:17.845Z,39.2
2018-05-09T01:06:08.197Z,39.1
2018-05-09T01:06:58.256Z,39.1
2018-05-09T01:07:47.510Z,39.1
2018-05-09T01:08:37.546Z,39.1
2018-05-09T01:09:28.485Z,39.1
2018-05-09T01:10:18.212Z,39.1
2018-05-09T01:11:08.578Z,39.1
2018-05-09T01:11:58.360Z,39.1
2018-05-09T01:12:47.861Z,39.1
2018-05-09T01:13:38.490Z,39.1
2018-05-09T01:14:28.599Z,39.1
2018-05-09T01:15:18.361Z,39
2018-05-09T01:16:08.970Z,39
2018-05-09T01:16:58.737Z,39
2018-05-09T01:17:49.114Z,39
2018-05-09T01:18:38.887Z,39
2018-05-09T01:19:28.988Z,39
2018-05-09T01:20:18.782Z,39
2018-05-09T01:21:09.372Z,38.9
2018-05-09T01:21:59.155Z,39
2018-05-09T01:22:48.635Z,38.9
2018-05-09T01:23:39.538Z,38.9
2018-05-09T01:24:29.127Z,38.9
2018-05-09T01:25:19.380Z,38.9
2018-05-09T01:26:09.272Z,38.9
2018-05-09T01:26:59.837Z,38.9
2018-05-09T01:27:49.312Z,38.9
2018-05-09T01:28:39.910Z,38.9
2018-05-09T01:29:29.212Z,38.8
2018-05-09T01:30:20.057Z,38.8
2018-05-09T01:31:09.827Z,38.8
2018-05-09T01:31:59.966Z,38.8
2018-05-09T01:32:50.253Z,38.8
2018-05-09T01:33:40.321Z,38.8
2018-05-09T01:34:30.447Z,38.8
2018-05-09T01:35:20.200Z,38.8
2018-05-09T01:36:09.949Z,38.8
2018-05-09T01:37:00.587Z,38.8
2018-05-09T01:37:50.089Z,38.8
2018-05-09T01:38:40.426Z,38.8
2018-05-09T01:39:30.527Z,38.8
2018-05-09T01:40:20.551Z,38.7
2018-05-09T01:41:10.062Z,38.8
2018-05-09T01:42:00.760Z,38.7
2018-05-09T01:42:50.771Z,38.7
2018-05-09T01:43:41.086Z,38.7
2018-05-09T01:44:30.038Z,38.7
2018-05-09T01:45:20.664Z,38.7
2018-05-09T01:46:11.026Z,38.7
2018-05-09T01:47:01.058Z,38.7
2018-05-09T01:47:51.140Z,38.6
2018-05-09T01:48:41.238Z,38.6
2018-05-09T01:49:30.696Z,38.6
2018-05-09T01:50:20.504Z,38.6
2018-05-09T01:51:10.822Z,38.6
2018-05-09T01:52:01.490Z,38.6
2018-05-09T01:52:51.579Z,38.6
2018-05-09T01:53:41.633Z,38.6
2018-05-09T01:54:31.921Z,38.6
2018-05-09T01:55:21.500Z,38.6
2018-05-09T01:56:12.053Z,38.5
2018-05-09T01:57:01.574Z,38.5
2018-05-09T01:57:51.716Z,38.5
2018-05-09T01:58:41.647Z,38.5
2018-05-09T01:59:32.057Z,38.4
2018-05-09T02:00:22.347Z,38.5
2018-05-09T02:01:12.408Z,38.5
2018-05-09T02:02:02.524Z,38.6
2018-05-09T02:02:52.553Z,38.6
2018-05-09T02:03:42.617Z,38.7
2018-05-09T02:04:32.388Z,38.8
2018-05-09T02:05:22.181Z,38.9
2018-05-09T02:06:14.198Z,39.1
2018-05-09T02:07:02.635Z,39.2
2018-05-09T02:07:52.933Z,39.3
2018-05-09T02:08:42.727Z,39.4
2018-05-09T02:09:32.795Z,39.6
2018-05-09T02:10:23.229Z,39.6
2018-05-09T02:11:13.190Z,39.8
2018-05-09T02:12:02.982Z,39.8
2018-05-09T02:12:53.336Z,39.9
2018-05-09T02:13:43.123Z,39.9
2018-05-09T02:14:32.902Z,40
2018-05-09T02:15:23.243Z,40.1
2018-05-09T02:16:13.348Z,40.1
2018-05-09T02:17:03.658Z,40.1
2018-05-09T02:17:53.451Z,40.2
2018-05-09T02:18:43.208Z,40.2
2018-05-09T02:19:33.817Z,40.3
2018-05-09T02:20:23.074Z,40.3
2018-05-09T02:21:13.955Z,40.3
2018-05-09T02:22:04.045Z,40.3
2018-05-09T02:22:53.792Z,40.4
2018-05-09T02:23:43.909Z,40.4
2018-05-09T02:24:34.210Z,40.4
2018-05-09T02:25:24.047Z,40.5
2018-05-09T02:26:14.355Z,40.6
2018-05-09T02:27:04.155Z,40.6
2018-05-09T02:27:54.487Z,40.6
2018-05-09T02:28:44.534Z,40.6
2018-05-09T02:29:34.050Z,40.7
2018-05-09T02:30:24.113Z,40.7
2018-05-09T02:31:14.894Z,40.7
2018-05-09T02:32:04.270Z,40.7
2018-05-09T02:32:54.323Z,40.8
2018-05-09T02:33:44.413Z,40.8
2018-05-09T04:37:21.289Z,27.1
2018-05-09T04:38:11.350Z,27
2018-05-09T04:39:00.497Z,27
2018-05-09T04:39:51.408Z,26.9
2018-05-09T04:40:41.508Z,26.9
2018-05-09T04:41:31.205Z,26.9
2018-05-09T04:42:21.320Z,26.9
2018-05-09T04:43:11.616Z,26.8
2018-05-09T04:44:01.114Z,26.8
2018-05-09T04:44:51.518Z,26.8
2018-05-09T04:45:41.321Z,26.7
2018-05-09T04:46:31.651Z,26.6
2018-05-09T04:47:22.018Z,26.5
2018-05-09T04:48:12.003Z,26.4
2018-05-09T04:49:02.044Z,26.3
2018-05-09T04:49:52.115Z,26.3
2018-05-09T04:50:42.186Z,26.2
2018-05-09T04:51:32.261Z,26.1
2018-05-09T04:52:22.309Z,26
2018-05-09T04:53:12.080Z,26
2018-05-09T04:54:02.452Z,25.9
2018-05-09T04:54:51.938Z,25.9
2018-05-09T04:55:44.593Z,25.8
2018-05-09T04:56:32.344Z,25.8
2018-05-09T04:57:22.109Z,25.8
2018-05-09T04:58:12.457Z,25.8
2018-05-09T04:59:02.270Z,25.8
2018-05-09T04:59:52.858Z,25.8
2018-05-09T05:00:42.944Z,25.8
2018-05-09T05:01:32.998Z,25.8
2018-05-09T05:02:22.799Z,25.7
2018-05-09T05:03:12.850Z,25.7
2018-05-09T05:04:03.185Z,25.7
2018-05-09T05:04:53.269Z,25.7
2018-05-09T05:05:42.767Z,25.7
2018-05-09T05:06:33.344Z,25.6
2018-05-09T05:07:23.149Z,25.6
2018-05-09T05:08:13.506Z,25.6
2018-05-09T05:09:03.279Z,25.6
2018-05-09T05:09:53.573Z,25.6
2018-05-09T05:10:43.351Z,25.6
2018-05-09T05:11:33.435Z,25.6
2018-05-09T05:12:22.715Z,25.6
2018-05-09T05:13:13.833Z,25.5
2018-05-09T05:14:03.651Z,25.5
2018-05-09T05:14:53.667Z,25.5
2018-05-09T05:15:44.214Z,25.5
2018-05-09T05:16:34.069Z,25.5
2018-05-09T05:17:23.656Z,25.5
2018-05-09T05:18:13.670Z,25.5
2018-05-09T05:19:03.454Z,25.4
2018-05-09T05:19:54.412Z,25.4
2018-05-09T05:20:44.107Z,25.4
2018-05-09T05:21:34.152Z,25.4
2018-05-09T05:22:23.949Z,25.4
2018-05-09T05:23:14.315Z,25.4
2018-05-09T05:24:04.106Z,25.4
2018-05-09T05:24:54.410Z,25.4
2018-05-09T05:25:44.818Z,25.4
2018-05-09T05:26:34.408Z,25.4
2018-05-09T05:27:24.663Z,25.4
2018-05-09T05:28:14.418Z,25.3
2018-05-09T05:29:04.770Z,25.3
2018-05-09T05:29:55.170Z,25.3
2018-05-09T05:30:45.147Z,25.3
2018-05-09T05:31:35.254Z,25.3
2018-05-09T05:32:24.987Z,25.3
2018-05-09T05:33:15.072Z,25.3
2018-05-09T05:34:05.087Z,25.3
2018-05-09T05:34:54.612Z,25.3
2018-05-09T05:35:45.217Z,25.3
2018-05-09T05:36:35.350Z,31.8
2018-05-09T05:37:25.622Z,36.5
2018-05-09T05:38:15.218Z,36.8
2018-05-09T05:39:05.755Z,36.5
2018-05-09T05:39:55.814Z,36.4
2018-05-09T05:40:45.870Z,36.3
2018-05-09T05:41:35.455Z,36.1
2018-05-09T05:42:25.465Z,35.9
2018-05-09T05:43:15.790Z,38.5
2018-05-09T05:44:05.871Z,40.9
2018-05-09T05:44:55.873Z,41.3
2018-05-09T05:45:46.003Z,39.5
2018-05-09T05:46:35.829Z,38.2
2018-05-09T05:47:25.823Z,37.5
2018-05-09T05:48:16.481Z,37
2018-05-09T05:49:05.448Z,38.6
2018-05-09T05:49:56.575Z,40.9
2018-05-09T05:50:46.675Z,40.8
2018-05-09T05:51:36.724Z,38.6
2018-05-09T05:52:25.925Z,36.3
2018-05-09T05:53:16.072Z,38.9
2018-05-09T05:54:06.702Z,40.9
2018-05-09T05:54:56.699Z,42.1
2018-05-09T05:55:47.017Z,42.4
2018-05-09T05:56:36.764Z,41.1
2018-05-09T05:57:26.830Z,41.9
2018-05-09T05:58:17.215Z,42.9
2018-05-09T05:59:07.256Z,43.7
2018-05-09T05:59:56.797Z,44.3
2018-05-09T06:00:47.378Z,44.6
2018-05-09T06:01:37.225Z,44.8
2018-05-09T06:02:27.231Z,44.9
2018-05-09T06:03:16.525Z,45.1
2018-05-09T06:04:07.344Z,45.3
2018-05-09T06:04:57.418Z,45.4
2018-05-09T06:05:47.506Z,45.6
2018-05-09T06:06:37.298Z,45.8
2018-05-09T06:07:27.111Z,45.9
2018-05-09T06:08:17.948Z,46
2018-05-09T06:09:07.256Z,46.1
2018-05-09T06:09:57.595Z,46.2
2018-05-09T06:10:47.589Z,46.4
2018-05-09T06:11:37.672Z,46.4
2018-05-09T06:12:28.296Z,46.6
2018-05-09T06:13:18.054Z,46.7
2018-05-09T06:14:08.117Z,46.8
2018-05-09T06:14:57.594Z,46.9
2018-05-09T06:15:47.949Z,47
2018-05-09T06:16:38.384Z,47.1
2018-05-09T06:17:28.405Z,47.2
2018-05-09T06:18:18.406Z,47.3
2018-05-09T06:19:08.500Z,47.4
2018-05-09T06:19:58.519Z,47.5
2018-05-09T06:20:48.643Z,47.6
2018-05-09T06:21:38.688Z,47.8
2018-05-09T06:22:28.486Z,47.9
2018-05-09T06:23:18.305Z,47.9
2018-05-09T06:24:10.025Z,48
2018-05-09T06:24:58.980Z,48.1
2018-05-09T06:25:49.284Z,48.3
2018-05-09T06:26:38.786Z,48.4
2018-05-09T06:27:29.151Z,48.4
2018-05-09T06:28:19.211Z,48.4
2018-05-09T06:29:09.287Z,48.6
2018-05-09T06:29:59.347Z,48.6
2018-05-09T06:30:49.858Z,48.8
2018-05-09T06:31:39.160Z,48.8
2018-05-09T06:32:29.230Z,48.9
2018-05-09T06:33:19.313Z,49
2018-05-09T06:34:09.563Z,49.1
2018-05-09T06:34:59.723Z,49.2
2018-05-09T06:35:49.500Z,49.3
2018-05-09T06:36:39.572Z,49.4
2018-05-09T06:37:30.185Z,49.5
2018-05-09T06:38:20.247Z,49.6
2018-05-09T06:39:09.250Z,49.7
2018-05-09T06:40:00.440Z,49.8
2018-05-09T06:40:50.246Z,49.9
2018-05-09T06:41:40.597Z,50
2018-05-09T06:42:30.241Z,50.1
2018-05-09T06:43:20.343Z,50.2
2018-05-09T06:44:09.287Z,50.3
2018-05-09T06:45:00.198Z,50.4
2018-05-09T06:45:50.234Z,50.5
2018-05-09T06:46:40.163Z,50.6
2018-05-09T06:47:30.666Z,50.7
2018-05-09T06:48:21.028Z,50.8
2018-05-09T06:49:10.783Z,50.9
2018-05-09T06:50:01.719Z,50.9
2018-05-09T06:50:50.922Z,51.1
2018-05-09T06:51:40.727Z,51.2
2018-05-09T06:52:30.779Z,51.2
2018-05-09T06:53:20.574Z,51.3
2018-05-09T06:54:09.870Z,51.4
2018-05-09T06:55:01.279Z,51.4
2018-05-09T06:55:50.826Z,51.6
2018-05-09T06:56:41.075Z,51.6
2018-05-09T06:57:31.170Z,51.6
2018-05-09T06:58:21.249Z,51.7
2018-05-09T06:59:12.089Z,51.9
2018-05-09T07:00:51.494Z,52.1
2018-05-09T07:01:41.823Z,52.2
2018-05-09T07:02:32.107Z,52.3
2018-05-09T07:03:21.966Z,52.4
2018-05-09T07:04:12.255Z,52.6
2018-05-09T07:05:02.028Z,52.6
2018-05-09T07:05:52.074Z,52.7
2018-05-09T07:06:46.917Z,52.8
2018-05-09T07:07:31.916Z,52.9
2018-05-09T07:08:22.291Z,52.9
2018-05-09T07:09:12.326Z,53.1
2018-05-09T07:10:01.806Z,53.2
2018-05-09T07:10:52.858Z,53.3
2018-05-09T07:11:42.000Z,53.3
2018-05-09T07:12:32.601Z,53.4
2018-05-09T07:13:22.652Z,53.6
2018-05-09T07:14:12.822Z,53.6
2018-05-09T07:15:03.021Z,53.8
2018-05-09T07:15:52.573Z,53.9
2018-05-09T07:16:42.882Z,53.9
2018-05-09T07:17:32.656Z,54.1
2018-05-09T07:18:22.735Z,54.2
2018-05-09T07:19:13.138Z,54.3
2018-05-09T07:20:02.861Z,54.4
2018-05-09T07:20:53.530Z,54.5
2018-05-09T07:21:42.987Z,54.6
2018-05-09T07:22:33.071Z,54.8
2018-05-09T07:23:23.384Z,54.8
2018-05-09T07:24:13.503Z,54.9
2018-05-09T07:25:03.248Z,55.1
2018-05-09T07:25:53.316Z,55.1
2018-05-09T07:26:43.920Z,55.3
2018-05-09T07:27:33.710Z,55.4
2018-05-09T07:28:23.804Z,55.5
2018-05-09T07:29:13.583Z,55.6
2018-05-09T07:30:03.937Z,55.8
2018-05-09T07:30:54.258Z,55.9
2018-05-09T07:31:43.993Z,56
2018-05-09T07:32:34.366Z,56.1
2018-05-09T07:33:23.970Z,56.3
2018-05-09T07:34:14.520Z,56.3
2018-05-09T07:35:04.593Z,56.4
2018-05-09T07:35:53.973Z,56.6
2018-05-09T07:36:44.443Z,56.7
2018-05-09T07:37:34.755Z,56.8
2018-05-09T07:38:23.998Z,56.9
2018-05-09T07:39:13.847Z,57
2018-05-09T07:40:04.977Z,57.1
2018-05-09T07:40:55.103Z,57.3
2018-05-09T07:41:44.338Z,57.4
2018-05-09T07:42:34.854Z,57.5
2018-05-09T07:43:25.204Z,57.7
2018-05-09T07:45:05.091Z,57.9
2018-05-09T07:45:55.143Z,58.1
2018-05-09T07:46:45.461Z,58.2
2018-05-09T07:47:35.572Z,58.3
2018-05-09T07:48:24.794Z,58.4
2018-05-09T07:50:05.249Z,58.6
2018-05-09T07:50:55.577Z,58.8
2018-05-09T07:51:45.286Z,58.9
2018-05-09T07:52:35.647Z,59
2018-05-09T07:53:25.501Z,59.1
2018-05-09T07:54:15.574Z,59.2
2018-05-09T07:55:05.378Z,59.4
2018-05-09T07:55:56.144Z,59.4
2018-05-09T07:56:46.159Z,59.6
2018-05-09T07:57:35.341Z,59.7
2018-05-09T07:58:26.095Z,59.8
2018-05-09T07:59:16.426Z,59.9
2018-05-09T08:00:06.512Z,59.9
2018-05-09T08:00:55.967Z,60.1
2018-05-09T08:01:46.345Z,60.1
2018-05-09T08:02:36.133Z,60.2
2018-05-09T08:03:25.558Z,60.3
2018-05-09T08:04:16.299Z,60.3
2018-05-09T08:05:06.383Z,60.4
2018-05-09T08:05:56.046Z,60.5
2018-05-09T08:06:46.248Z,60.6
2018-05-09T08:07:36.496Z,60.8
2018-05-09T08:08:27.153Z,60.8
2018-05-09T08:09:17.170Z,60.9
2018-05-09T08:10:06.745Z,61
2018-05-09T08:10:57.055Z,61.1
2018-05-09T08:11:47.404Z,61.2
2018-05-09T08:12:36.134Z,61.3
2018-05-09T08:13:26.694Z,61.3
2018-05-09T08:14:16.547Z,61.4
2018-05-09T08:15:06.708Z,61.5
2018-05-09T08:15:56.477Z,61.6
2018-05-09T08:16:47.151Z,61.6
2018-05-09T08:17:37.306Z,61.8
2018-05-09T08:18:27.146Z,61.8
2018-05-09T08:19:17.718Z,61.9
2018-05-09T08:20:07.281Z,61.9
2018-05-09T08:20:58.088Z,62.1
2018-05-09T08:21:48.182Z,62.1
2018-05-09T08:22:37.662Z,62.2
2018-05-09T08:23:28.421Z,62.3
2018-05-09T08:24:18.368Z,62.4
2018-05-09T08:25:08.709Z,62.4
2018-05-09T08:25:58.472Z,62.5
2018-05-09T08:26:46.927Z,62.6
2018-05-09T08:27:38.126Z,62.7
2018-05-09T08:28:27.443Z,62.8
2018-05-09T08:29:18.737Z,62.8
2018-05-09T08:30:08.948Z,62.9
2018-05-09T08:30:58.115Z,62.9
2018-05-09T08:31:48.403Z,63
2018-05-09T08:32:39.062Z,63.1
2018-05-09T08:33:28.814Z,63.1
2018-05-09T08:34:18.887Z,63.2
2018-05-09T08:35:09.233Z,63.3
2018-05-09T08:35:59.285Z,63.3
2018-05-09T08:36:49.750Z,63.4
2018-05-09T08:37:39.181Z,63.5
2018-05-09T08:38:29.137Z,63.6
2018-05-09T08:39:19.254Z,63.7
2018-05-09T08:40:09.666Z,63.7
2018-05-09T08:40:59.683Z,63.8
2018-05-09T08:41:49.448Z,63.9
2018-05-09T08:42:39.546Z,63.9
2018-05-09T08:43:30.924Z,64
2018-05-09T08:44:19.359Z,64.1
2018-05-09T08:45:09.729Z,64.2
2018-05-09T08:45:58.930Z,64.3
2018-05-09T08:46:49.512Z,64.3
2018-05-09T08:47:39.863Z,64.4
2018-05-09T08:48:29.973Z,64.5
2018-05-09T08:49:20.986Z,64.6
2018-05-09T08:50:10.354Z,64.6
2018-05-09T08:51:00.402Z,64.8
2018-05-09T08:51:50.213Z,64.8
2018-05-09T08:52:40.545Z,64.9
2018-05-09T08:53:30.629Z,65
2018-05-09T08:54:20.417Z,65
2018-05-09T08:55:10.455Z,65.1
2018-05-09T08:56:00.244Z,65.2
2018-05-09T08:56:50.608Z,65.3
2018-05-09T08:57:40.396Z,65.3
2018-05-09T08:58:31.049Z,65.4
2018-05-09T08:59:20.800Z,65.5
2018-05-09T09:00:10.319Z,65.6
2018-05-09T09:01:00.943Z,65.6
2018-05-09T09:01:49.429Z,65.6
2018-05-09T09:02:40.494Z,65.6
2018-05-09T09:03:31.386Z,65.7
2018-05-09T09:04:21.721Z,65.8
2018-05-09T09:05:10.408Z,65.9
2018-05-09T09:06:01.599Z,65.9
2018-05-09T09:06:51.367Z,66
2018-05-09T09:07:41.738Z,66.1
2018-05-09T09:08:31.748Z,66.1
2018-05-09T09:09:21.045Z,66.3
2018-05-09T09:10:11.169Z,66.3
2018-05-09T09:11:01.204Z,66.3
2018-05-09T09:11:51.748Z,66.4
2018-05-09T09:12:41.819Z,66.4
2018-05-09T09:13:31.871Z,66.6
2018-05-09T09:14:22.001Z,66.6
2018-05-09T09:15:11.979Z,66.8
2018-05-09T09:16:01.828Z,66.8
2018-05-09T09:16:52.112Z,66.9
2018-05-09T09:17:42.190Z,66.9
2018-05-09T09:18:32.782Z,67
2018-05-09T09:19:22.067Z,67.1
2018-05-09T09:20:12.772Z,67.2
2018-05-09T09:21:02.697Z,67.3
2018-05-09T09:21:52.897Z,67.4
2018-05-09T09:22:42.622Z,67.4
2018-05-09T09:23:32.375Z,67.5
2018-05-09T09:24:21.899Z,67.4
2018-05-09T09:25:11.948Z,67.5
2018-05-09T09:26:02.830Z,67.6
2018-05-09T09:26:53.175Z,67.4
2018-05-09T09:27:42.706Z,67.3
2018-05-09T09:28:33.026Z,67.4
2018-05-09T09:29:23.256Z,67.4
2018-05-09T09:30:13.517Z,67.4
2018-05-09T09:31:03.285Z,67.5
2018-05-09T09:31:53.320Z,67.6
2018-05-09T09:32:43.395Z,67.6
2018-05-09T09:33:33.468Z,67.8
2018-05-09T09:34:23.516Z,67.9
2018-05-09T09:35:13.041Z,68
2018-05-09T09:36:03.109Z,68.1
2018-05-09T09:36:53.714Z,68.3
2018-05-09T09:37:43.813Z,68.3
2018-05-09T09:38:33.847Z,68.4
2018-05-09T09:39:24.255Z,68.5
2018-05-09T09:40:14.304Z,68.6
2018-05-09T09:41:04.102Z,68.7
2018-05-09T09:41:54.469Z,68.8
2018-05-09T09:42:43.859Z,68.8
2018-05-09T09:43:34.472Z,68.8
2018-05-09T09:44:24.080Z,68.9
2018-05-09T09:45:14.312Z,68.9
2018-05-09T09:46:04.117Z,69.1
2018-05-09T09:46:54.740Z,69.2
2018-05-09T09:47:44.520Z,69.3
2018-05-09T09:48:34.608Z,69.4
2018-05-09T09:49:24.936Z,69.4
2018-05-09T09:50:14.975Z,69.5
2018-05-09T09:51:04.781Z,69.6
2018-05-09T09:51:54.556Z,69.7
2018-05-09T09:52:44.885Z,69.8
2018-05-09T09:53:35.290Z,69.9
2018-05-09T09:54:24.481Z,69.9
2018-05-09T09:55:15.121Z,70
2018-05-09T09:56:04.625Z,70.1
2018-05-09T09:56:55.495Z,70.1
2018-05-09T09:57:44.986Z,70.3
2018-05-09T09:58:35.430Z,70.3
2018-05-09T09:59:25.816Z,70.4
2018-05-09T10:00:15.194Z,70.4
2018-05-09T10:01:05.840Z,70.5
2018-05-09T10:01:55.880Z,70.7
2018-05-09T10:02:45.674Z,70.8
2018-05-09T10:03:35.761Z,70.8
2018-05-09T10:04:26.180Z,70.9
2018-05-09T10:05:16.177Z,70.9
2018-05-09T10:06:05.962Z,71
2018-05-09T10:06:56.300Z,71.1
2018-05-09T10:07:46.323Z,71.1
2018-05-09T10:08:35.852Z,71.2
2018-05-09T10:09:26.173Z,71.3
2018-05-09T10:10:15.963Z,71.3
2018-05-09T10:11:05.739Z,71.4
2018-05-09T10:11:56.098Z,71.4
2018-05-09T10:12:46.744Z,71.5
2018-05-09T10:13:36.799Z,71.6
2018-05-09T10:14:26.875Z,71.8
2018-05-09T10:15:16.343Z,71.8
2018-05-09T10:16:07.735Z,71.8
2018-05-09T10:16:56.742Z,71.9
2018-05-09T10:17:46.570Z,71.9
2018-05-09T10:18:37.160Z,72.1
2018-05-09T10:19:26.939Z,72.1
2018-05-09T10:20:17.308Z,72.2
2018-05-09T10:21:06.626Z,72.2
2018-05-09T10:21:57.443Z,72.3
2018-05-09T10:22:47.513Z,72.3
2018-05-09T10:23:37.246Z,72.1
2018-05-09T10:24:27.332Z,71.7
2018-05-09T10:25:17.202Z,70.9
2018-05-09T10:26:07.833Z,70.9
2018-05-09T10:26:57.320Z,71.4
2018-05-09T10:27:47.608Z,72.3
2018-05-09T10:28:37.661Z,72.8
2018-05-09T10:29:27.748Z,73
2018-05-09T10:30:17.510Z,72.9
2018-05-09T10:31:07.958Z,72.8
2018-05-09T10:31:58.073Z,72.9
2018-05-09T10:32:47.998Z,73
2018-05-09T10:33:37.823Z,73.1
2018-05-09T10:34:28.465Z,73.1
2018-05-09T10:35:17.962Z,73.2
2018-05-09T10:36:08.267Z,73.3
2018-05-09T10:36:57.568Z,73.3
2018-05-09T10:37:48.373Z,73.4
2018-05-09T10:38:38.730Z,73.4
2018-05-09T10:39:28.021Z,73.4
2018-05-09T10:40:18.563Z,73.5
2018-05-09T10:41:08.898Z,73.6
2018-05-09T10:41:59.011Z,73.6
2018-05-09T10:42:48.477Z,73.6
2018-05-09T10:43:39.089Z,73.7
2018-05-09T10:44:29.167Z,73.8
2018-05-09T10:45:19.290Z,73.8
2018-05-09T10:46:08.745Z,73.9
2018-05-09T10:46:59.095Z,73.9
2018-05-09T10:47:49.129Z,74
2018-05-09T10:48:38.942Z,74.1
2018-05-09T10:49:29.266Z,74.1
2018-05-09T10:50:19.618Z,74.2
2018-05-09T10:51:09.134Z,74.3
2018-05-09T10:51:59.487Z,74.3
2018-05-09T10:52:49.534Z,74.3
2018-05-09T10:53:39.892Z,74.5
2018-05-09T10:54:29.701Z,74.5
2018-05-09T10:55:19.987Z,74.5
2018-05-09T10:56:10.042Z,74.6
2018-05-09T10:56:59.843Z,74.6
2018-05-09T10:57:49.636Z,74.7
2018-05-09T10:58:39.971Z,74.8
2018-05-09T10:59:30.378Z,74.8
2018-05-09T11:00:20.119Z,74.9
2018-05-09T11:01:09.635Z,74.9
2018-05-09T11:02:00.242Z,75
2018-05-09T11:02:49.730Z,75
2018-05-09T11:03:40.385Z,75.1
2018-05-09T11:04:30.442Z,75
2018-05-09T11:05:20.504Z,75.2
2018-05-09T11:06:10.289Z,75.2
2018-05-09T11:07:00.362Z,75.3
2018-05-09T11:07:50.168Z,75.3
2018-05-09T11:08:40.199Z,75.3
2018-05-09T11:09:30.838Z,75.4
2018-05-09T11:10:20.911Z,75.4
2018-05-09T11:11:10.684Z,75.5
2018-05-09T11:12:01.312Z,75.6
2018-05-09T11:12:51.349Z,75.6
2018-05-09T11:13:41.440Z,75.6
2018-05-09T11:14:31.480Z,75.6
2018-05-09T11:15:21.552Z,75.6
2018-05-09T11:16:11.018Z,75.7
2018-05-09T11:17:01.369Z,75.8
2018-05-09T11:17:51.157Z,75.8
2018-05-09T11:18:41.245Z,75.8
2018-05-09T11:19:31.326Z,75.8
2018-05-09T11:20:21.367Z,75.9
2018-05-09T11:21:11.978Z,75.9
2018-05-09T11:22:01.838Z,75.9
2018-05-09T11:22:52.209Z,76
2018-05-09T11:23:41.974Z,76
2018-05-09T11:24:33.403Z,76.1
2018-05-09T11:25:21.744Z,76.1
2018-05-09T11:26:12.103Z,76.2
2018-05-09T11:27:02.168Z,76.1
2018-05-09T11:27:51.942Z,76.3
2018-05-09T11:28:42.085Z,76.3
2018-05-09T11:29:32.348Z,76.4
2018-05-09T11:30:22.153Z,76.4
2018-05-09T11:31:12.503Z,76.4
2018-05-09T11:32:02.352Z,76.4
2018-05-09T11:32:52.645Z,76.5
2018-05-09T11:33:42.703Z,76.6
2018-05-09T11:34:33.103Z,76.5
2018-05-09T11:35:23.072Z,76.6
2018-05-09T11:36:12.413Z,76.7
2018-05-09T11:37:02.945Z,76.7
2018-05-09T11:37:52.747Z,76.7
2018-05-09T11:38:43.336Z,76.8
2018-05-09T11:39:32.644Z,76.8
2018-05-09T11:40:23.202Z,76.8
2018-05-09T11:41:13.249Z,76.8
2018-05-09T11:42:03.351Z,76.8
2018-05-09T11:42:53.389Z,76.9
2018-05-09T11:43:43.746Z,76.9
2018-05-09T11:44:33.833Z,76.9
2018-05-09T11:45:23.621Z,76.9
2018-05-09T11:46:13.992Z,76.9
2018-05-09T11:47:02.898Z,76.8
2018-05-09T11:47:53.744Z,76.8
2018-05-09T11:48:43.565Z,76.8
2018-05-09T11:49:33.087Z,76.8
2018-05-09T11:50:24.264Z,76.8
2018-05-09T11:51:14.049Z,76.8
2018-05-09T11:52:04.134Z,76.9
2018-05-09T11:52:53.703Z,76.9
2018-05-09T11:53:44.561Z,76.9
2018-05-09T11:54:34.283Z,76.9
2018-05-09T11:55:23.833Z,77
2018-05-09T11:56:14.149Z,76.9
2018-05-09T11:57:04.742Z,76.9
2018-05-09T11:57:54.599Z,76.9
2018-05-09T11:58:44.868Z,76.9
2018-05-09T11:59:34.947Z,76.9
2018-05-09T12:00:25.013Z,77
2018-05-09T12:01:15.110Z,77.1
2018-05-09T12:02:04.920Z,77.1
2018-05-09T12:02:54.388Z,77.1
2018-05-09T12:03:45.039Z,77.1
2018-05-09T12:04:35.055Z,77.1
2018-05-09T12:05:24.864Z,77.2
2018-05-09T12:06:15.321Z,77.2
2018-05-09T12:07:05.593Z,77.2
2018-05-09T12:07:55.097Z,77.3
2018-05-09T12:08:45.135Z,77.3
2018-05-09T12:09:35.193Z,77.3
2018-05-09T12:10:27.174Z,77.3
2018-05-09T12:11:15.898Z,77.3
2018-05-09T12:12:05.924Z,77.4
2018-05-09T12:12:55.465Z,77.3
2018-05-09T12:13:46.091Z,77.4
2018-05-09T12:14:35.578Z,77.4
2018-05-09T12:15:25.645Z,77.4
2018-05-09T12:16:15.404Z,77.4
2018-05-09T12:17:06.306Z,77.5
2018-05-09T12:17:56.373Z,77.4
2018-05-09T12:18:46.211Z,77.5
2018-05-09T12:19:35.673Z,77.5
2018-05-09T12:20:26.126Z,77.6
2018-05-09T12:21:15.841Z,77.5
2018-05-09T12:22:06.485Z,77.5
2018-05-09T12:22:56.588Z,77.6
2018-05-09T12:23:46.089Z,77.6
2018-05-09T12:24:37.799Z,77.5
2018-05-09T12:25:26.109Z,77.5
2018-05-09T12:26:16.799Z,77.3
2018-05-09T12:27:06.618Z,77.1
2018-05-09T12:27:56.878Z,76.9
2018-05-09T12:28:47.254Z,76.9
2018-05-09T12:29:37.311Z,76.8
2018-05-09T12:30:27.092Z,76.8
2018-05-09T12:31:17.152Z,76.8
2018-05-09T12:32:07.210Z,76.8
2018-05-09T12:32:57.572Z,76.8
2018-05-09T12:33:47.644Z,76.8
2018-05-09T12:34:37.697Z,76.8
2018-05-09T12:35:27.168Z,76.8
2018-05-09T12:36:17.342Z,76.8
2018-05-09T12:37:07.887Z,76.8
2018-05-09T12:37:57.903Z,76.8
2018-05-09T12:38:47.792Z,76.8
2018-05-09T12:39:37.517Z,76.8
2018-05-09T12:40:28.141Z,76.8
2018-05-09T12:41:17.954Z,76.8
2018-05-09T12:42:08.310Z,76.9
2018-05-09T12:42:57.794Z,76.9
2018-05-09T12:43:48.148Z,76.9
2018-05-09T12:44:37.946Z,76.9
2018-05-09T12:45:28.260Z,76.9
2018-05-09T12:46:18.275Z,76.9
2018-05-09T12:47:08.347Z,76.9
2018-05-09T12:47:58.725Z,76.9
2018-05-09T12:48:51.066Z,76.9
2018-05-09T12:49:38.026Z,76.9
2018-05-09T12:50:28.709Z,76.8
2018-05-09T12:51:18.138Z,76.8
2018-05-09T12:52:08.531Z,76.8
2018-05-09T12:52:57.951Z,76.8
2018-05-09T12:53:49.205Z,76.8
2018-05-09T12:54:39.949Z,76.8
2018-05-09T12:55:29.322Z,76.8
2018-05-09T12:56:19.355Z,76.8
2018-05-09T12:57:09.399Z,76.8
2018-05-09T12:57:59.481Z,76.7
2018-05-09T12:58:49.291Z,76.8
2018-05-09T12:59:39.587Z,76.7
2018-05-09T13:00:30.711Z,76.7
2018-05-09T13:01:19.187Z,76.6
2018-05-09T13:02:09.273Z,76.6
2018-05-09T13:02:59.073Z,76.6
2018-05-09T13:03:49.398Z,76.6
2018-05-09T13:04:40.059Z,76.6
2018-05-09T13:05:30.073Z,76.6
2018-05-09T13:06:20.184Z,76.6
2018-05-09T13:07:09.855Z,76.5
2018-05-09T13:07:59.225Z,76.4
2018-05-09T13:08:50.095Z,76.4
2018-05-09T13:09:40.155Z,76.4
2018-05-09T13:10:30.499Z,76.4
2018-05-09T13:11:20.343Z,76.4
2018-05-09T13:12:10.021Z,76.3
2018-05-09T13:13:00.671Z,76.3
2018-05-09T13:13:50.721Z,76.2